sensor_id;sensor_type;location;lat;lon;timestamp;pressure;altitude;pressure_sealevel;temperature
69785;BMP280;14177;51.520;6.764;2024-02-04T00:02:19;102106.34;;;10.52
69785;BMP280;14177;51.520;6.764;2024-02-04T00:04:51;102097.72;;;10.51
69785;BMP280;14177;51.520;6.764;2024-02-04T00:07:19;102097.72;;;10.50
69785;BMP280;14177;51.520;6.764;2024-02-04T00:09:46;102097.72;;;10.50
69785;BMP280;14177;51.520;6.764;2024-02-04T00:12:13;102089.06;;;10.48
69785;BMP280;14177;51.520;6.764;2024-02-04T00:14:40;102086.47;;;10.48
69785;BMP280;14177;51.520;6.764;2024-02-04T00:17:07;102082.09;;;10.53
69785;BMP280;14177;51.520;6.764;2024-02-04T00:19:34;102071.72;;;10.51
69785;BMP280;14177;51.520;6.764;2024-02-04T00:22:01;102069.94;;;10.55
69785;BMP280;14177;51.520;6.764;2024-02-04T00:24:28;102089.00;;;10.57
69785;BMP280;14177;51.520;6.764;2024-02-04T00:26:55;102081.16;;;10.60
69785;BMP280;14177;51.520;6.764;2024-02-04T00:29:22;102078.56;;;10.60
69785;BMP280;14177;51.520;6.764;2024-02-04T00:31:49;102080.28;;;10.61
69785;BMP280;14177;51.520;6.764;2024-02-04T00:34:16;102078.56;;;10.60
69785;BMP280;14177;51.520;6.764;2024-02-04T00:36:43;102077.72;;;10.58
69785;BMP280;14177;51.520;6.764;2024-02-04T00:39:10;102077.75;;;10.55
69785;BMP280;14177;51.520;6.764;2024-02-04T00:41:38;102082.06;;;10.56
69785;BMP280;14177;51.520;6.764;2024-02-04T00:44:05;102079.50;;;10.54
69785;BMP280;14177;51.520;6.764;2024-02-04T00:46:32;102089.03;;;10.52
69785;BMP280;14177;51.520;6.764;2024-02-04T00:48:59;102082.09;;;10.53
69785;BMP280;14177;51.520;6.764;2024-02-04T00:51:26;102082.97;;;10.53
69785;BMP280;14177;51.520;6.764;2024-02-04T00:53:53;102100.28;;;10.53
69785;BMP280;14177;51.520;6.764;2024-02-04T00:56:22;102080.34;;;10.55
69785;BMP280;14177;51.520;6.764;2024-02-04T00:58:49;102083.81;;;10.55
69785;BMP280;14177;51.520;6.764;2024-02-04T01:01:16;102077.78;;;10.53
69785;BMP280;14177;51.520;6.764;2024-02-04T01:03:43;102092.53;;;10.50
69785;BMP280;14177;51.520;6.764;2024-02-04T01:06:10;102085.63;;;10.47
69785;BMP280;14177;51.520;6.764;2024-02-04T01:08:37;102093.41;;;10.49
69785;BMP280;14177;51.520;6.764;2024-02-04T01:11:05;102083.03;;;10.46
69785;BMP280;14177;51.520;6.764;2024-02-04T01:13:32;102087.34;;;10.47
69785;BMP280;14177;51.520;6.764;2024-02-04T01:15:59;102083.06;;;10.43
69785;BMP280;14177;51.520;6.764;2024-02-04T01:18:26;102079.63;;;10.42
69785;BMP280;14177;51.520;6.764;2024-02-04T01:20:53;102084.84;;;10.39
69785;BMP280;14177;51.520;6.764;2024-02-04T01:23:20;102085.72;;;10.37
69785;BMP280;14177;51.520;6.764;2024-02-04T01:25:47;102083.13;;;10.37
69785;BMP280;14177;51.520;6.764;2024-02-04T01:28:14;102079.69;;;10.36
69785;BMP280;14177;51.520;6.764;2024-02-04T01:30:41;102080.53;;;10.37
69785;BMP280;14177;51.520;6.764;2024-02-04T01:33:08;102091.78;;;10.37
69785;BMP280;14177;51.520;6.764;2024-02-04T01:35:35;102085.72;;;10.37
69785;BMP280;14177;51.520;6.764;2024-02-04T01:38:03;102085.72;;;10.37
69785;BMP280;14177;51.520;6.764;2024-02-04T01:40:30;102092.63;;;10.38
69785;BMP280;14177;51.520;6.764;2024-02-04T01:42:57;102090.88;;;10.41
69785;BMP280;14177;51.520;6.764;2024-02-04T01:45:24;102086.53;;;10.43
69785;BMP280;14177;51.520;6.764;2024-02-04T01:47:52;102076.13;;;10.46
69785;BMP280;14177;51.520;6.764;2024-02-04T01:50:21;102085.63;;;10.47
69785;BMP280;14177;51.520;6.764;2024-02-04T01:52:50;102081.31;;;10.45
69785;BMP280;14177;51.520;6.764;2024-02-04T01:55:18;102081.31;;;10.46
69785;BMP280;14177;51.520;6.764;2024-02-04T01:57:48;102071.78;;;10.44
69785;BMP280;14177;51.520;6.764;2024-02-04T02:00:16;102066.59;;;10.44
69785;BMP280;14177;51.520;6.764;2024-02-04T02:02:47;102065.72;;;10.46
69785;BMP280;14177;51.520;6.764;2024-02-04T02:05:15;102065.72;;;10.45
69785;BMP280;14177;51.520;6.764;2024-02-04T02:07:42;102073.50;;;10.48
69785;BMP280;14177;51.520;6.764;2024-02-04T02:10:13;102072.53;;;10.55
69785;BMP280;14177;51.520;6.764;2024-02-04T02:12:50;102082.94;;;10.56
69785;BMP280;14177;51.520;6.764;2024-02-04T02:15:25;102082.91;;;10.58
69785;BMP280;14177;51.520;6.764;2024-02-04T02:18:10;102073.38;;;10.58
69785;BMP280;14177;51.520;6.764;2024-02-04T02:20:41;102073.31;;;10.61
69785;BMP280;14177;51.520;6.764;2024-02-04T02:23:22;102078.53;;;10.63
69785;BMP280;14177;51.520;6.764;2024-02-04T02:25:51;102075.91;;;10.66
69785;BMP280;14177;51.520;6.764;2024-02-04T02:28:18;102078.50;;;10.66
69785;BMP280;14177;51.520;6.764;2024-02-04T02:30:45;102075.91;;;10.66
69785;BMP280;14177;51.520;6.764;2024-02-04T02:33:12;102075.03;;;10.65
69785;BMP280;14177;51.520;6.764;2024-02-04T02:35:40;102083.66;;;10.69
69785;BMP280;14177;51.520;6.764;2024-02-04T02:38:27;102067.19;;;10.68
69785;BMP280;14177;51.520;6.764;2024-02-04T02:41:03;102069.81;;;10.67
69785;BMP280;14177;51.520;6.764;2024-02-04T02:43:33;102080.22;;;10.67
69785;BMP280;14177;51.520;6.764;2024-02-04T02:46:01;102077.63;;;10.65
69785;BMP280;14177;51.520;6.764;2024-02-04T02:48:29;102066.34;;;10.68
69785;BMP280;14177;51.520;6.764;2024-02-04T02:50:56;102079.34;;;10.66
69785;BMP280;14177;51.520;6.764;2024-02-04T02:53:25;102079.38;;;10.63
69785;BMP280;14177;51.520;6.764;2024-02-04T02:55:51;102065.50;;;10.66
69785;BMP280;14177;51.520;6.764;2024-02-04T02:58:18;102062.91;;;10.66
69785;BMP280;14177;51.520;6.764;2024-02-04T03:00:46;102057.69;;;10.66
69785;BMP280;14177;51.520;6.764;2024-02-04T03:03:13;102064.66;;;10.64
69785;BMP280;14177;51.520;6.764;2024-02-04T03:05:41;102061.19;;;10.65
69785;BMP280;14177;51.520;6.764;2024-02-04T03:08:08;102065.50;;;10.64
69785;BMP280;14177;51.520;6.764;2024-02-04T03:10:35;102055.94;;;10.66
69785;BMP280;14177;51.520;6.764;2024-02-04T03:13:02;102066.34;;;10.66
69785;BMP280;14177;51.520;6.764;2024-02-04T03:15:29;102063.78;;;10.65
69785;BMP280;14177;51.520;6.764;2024-02-04T03:17:57;102059.47;;;10.64
69785;BMP280;14177;51.520;6.764;2024-02-04T03:20:24;102050.78;;;10.65
69785;BMP280;14177;51.520;6.764;2024-02-04T03:22:51;102051.63;;;10.67
69785;BMP280;14177;51.520;6.764;2024-02-04T03:25:18;102046.44;;;10.67
69785;BMP280;14177;51.520;6.764;2024-02-04T03:27:45;102034.28;;;10.67
69785;BMP280;14177;51.520;6.764;2024-02-04T03:30:13;102041.22;;;10.65
69785;BMP280;14177;51.520;6.764;2024-02-04T03:32:40;102037.78;;;10.63
69785;BMP280;14177;51.520;6.764;2024-02-04T03:35:08;102040.38;;;10.63
69785;BMP280;14177;51.520;6.764;2024-02-04T03:37:35;102024.81;;;10.62
69785;BMP280;14177;51.520;6.764;2024-02-04T03:40:02;102028.28;;;10.64
69785;BMP280;14177;51.520;6.764;2024-02-04T03:42:29;102023.94;;;10.61
69785;BMP280;14177;51.520;6.764;2024-02-04T03:44:57;102031.75;;;10.63
69785;BMP280;14177;51.520;6.764;2024-02-04T03:47:24;102032.59;;;10.63
69785;BMP280;14177;51.520;6.764;2024-02-04T03:49:51;102028.28;;;10.64
69785;BMP280;14177;51.520;6.764;2024-02-04T03:52:18;102034.38;;;10.58
69785;BMP280;14177;51.520;6.764;2024-02-04T03:54:45;102028.34;;;10.58
69785;BMP280;14177;51.520;6.764;2024-02-04T03:57:12;102036.09;;;10.59
69785;BMP280;14177;51.520;6.764;2024-02-04T03:59:39;102026.59;;;10.58
69785;BMP280;14177;51.520;6.764;2024-02-04T04:02:06;102024.88;;;10.59
69785;BMP280;14177;51.520;6.764;2024-02-04T04:04:33;102036.09;;;10.59
69785;BMP280;14177;51.520;6.764;2024-02-04T04:07:00;102032.63;;;10.60
69785;BMP280;14177;51.520;6.764;2024-02-04T04:09:27;102017.91;;;10.61
69785;BMP280;14177;51.520;6.764;2024-02-04T04:11:55;102029.16;;;10.61
69785;BMP280;14177;51.520;6.764;2024-02-04T04:14:22;102027.34;;;10.66
69785;BMP280;14177;51.520;6.764;2024-02-04T04:16:49;102029.13;;;10.66
69785;BMP280;14177;51.520;6.764;2024-02-04T04:19:16;102030.84;;;10.67
69785;BMP280;14177;51.520;6.764;2024-02-04T04:21:43;102029.91;;;10.71
69785;BMP280;14177;51.520;6.764;2024-02-04T04:24:10;102028.16;;;10.71
69785;BMP280;14177;51.520;6.764;2024-02-04T04:26:37;102036.81;;;10.75
69785;BMP280;14177;51.520;6.764;2024-02-04T04:29:04;102052.41;;;10.75
69785;BMP280;14177;51.520;6.764;2024-02-04T04:31:30;102062.81;;;10.75
69785;BMP280;14177;51.520;6.764;2024-02-04T04:33:57;102057.59;;;10.75
69785;BMP280;14177;51.520;6.764;2024-02-04T04:36:25;102064.53;;;10.76
69785;BMP280;14177;51.520;6.764;2024-02-04T04:38:52;102063.69;;;10.74
69785;BMP280;14177;51.520;6.764;2024-02-04T04:41:19;102060.19;;;10.75
69785;BMP280;14177;51.520;6.764;2024-02-04T04:43:45;102057.59;;;10.73
69785;BMP280;14177;51.520;6.764;2024-02-04T04:46:12;102054.13;;;10.74
69785;BMP280;14177;51.520;6.764;2024-02-04T04:48:39;102055.84;;;10.77
69785;BMP280;14177;51.520;6.764;2024-02-04T04:51:11;102036.78;;;10.76
69785;BMP280;14177;51.520;6.764;2024-02-04T04:53:39;102034.13;;;10.81
69785;BMP280;14177;51.520;6.764;2024-02-04T04:56:06;102044.53;;;10.79
69785;BMP280;14177;51.520;6.764;2024-02-04T04:58:35;102035.84;;;10.82
69785;BMP280;14177;51.520;6.764;2024-02-04T05:01:02;102047.06;;;10.87
69785;BMP280;14177;51.520;6.764;2024-02-04T05:03:29;102040.13;;;10.86
69785;BMP280;14177;51.520;6.764;2024-02-04T05:05:56;102030.66;;;10.82
69785;BMP280;14177;51.520;6.764;2024-02-04T05:08:23;102039.28;;;10.84
69785;BMP280;14177;51.520;6.764;2024-02-04T05:10:50;102032.38;;;10.83
69785;BMP280;14177;51.520;6.764;2024-02-04T05:13:16;102049.69;;;10.82
69785;BMP280;14177;51.520;6.764;2024-02-04T05:15:43;102042.78;;;10.81
69785;BMP280;14177;51.520;6.764;2024-02-04T05:18:10;102038.50;;;10.79
69785;BMP280;14177;51.520;6.764;2024-02-04T05:20:37;102036.78;;;10.78
69785;BMP280;14177;51.520;6.764;2024-02-04T05:23:04;102036.81;;;10.75
69785;BMP280;14177;51.520;6.764;2024-02-04T05:25:31;102029.00;;;10.75
69785;BMP280;14177;51.520;6.764;2024-02-04T05:27:58;102022.94;;;10.76
69785;BMP280;14177;51.520;6.764;2024-02-04T05:30:25;102021.16;;;10.78
69785;BMP280;14177;51.520;6.764;2024-02-04T05:32:52;102024.66;;;10.77
69785;BMP280;14177;51.520;6.764;2024-02-04T05:35:19;102022.97;;;10.73
69785;BMP280;14177;51.520;6.764;2024-02-04T05:37:46;102022.09;;;10.72
69785;BMP280;14177;51.520;6.764;2024-02-04T05:40:13;102016.88;;;10.74
69785;BMP280;14177;51.520;6.764;2024-02-04T05:42:42;102008.25;;;10.72
69785;BMP280;14177;51.520;6.764;2024-02-04T05:45:09;102003.84;;;10.75
69785;BMP280;14177;51.520;6.764;2024-02-04T05:47:37;102001.28;;;10.72
69785;BMP280;14177;51.520;6.764;2024-02-04T05:50:05;102007.34;;;10.76
69785;BMP280;14177;51.520;6.764;2024-02-04T05:52:32;101993.44;;;10.77
69785;BMP280;14177;51.520;6.764;2024-02-04T05:54:59;101978.75;;;10.74
69785;BMP280;14177;51.520;6.764;2024-02-04T05:57:31;101991.75;;;10.74
69785;BMP280;14177;51.520;6.764;2024-02-04T05:59:58;101983.06;;;10.75
69785;BMP280;14177;51.520;6.764;2024-02-04T06:02:26;101980.50;;;10.72
69785;BMP280;14177;51.520;6.764;2024-02-04T06:04:53;101990.06;;;10.72
69785;BMP280;14177;51.520;6.764;2024-02-04T06:07:21;101995.25;;;10.72
69785;BMP280;14177;51.520;6.764;2024-02-04T06:09:48;101995.28;;;10.69
69785;BMP280;14177;51.520;6.764;2024-02-04T06:12:15;101989.22;;;10.68
69785;BMP280;14177;51.520;6.764;2024-02-04T06:14:42;101989.22;;;10.68
69785;BMP280;14177;51.520;6.764;2024-02-04T06:17:09;101997.00;;;10.70
69785;BMP280;14177;51.520;6.764;2024-02-04T06:19:37;101998.72;;;10.69
69785;BMP280;14177;51.520;6.764;2024-02-04T06:22:05;101995.25;;;10.72
69785;BMP280;14177;51.520;6.764;2024-02-04T06:24:32;101986.56;;;10.73
69785;BMP280;14177;51.520;6.764;2024-02-04T06:26:59;101985.72;;;10.71
69785;BMP280;14177;51.520;6.764;2024-02-04T06:29:26;101983.13;;;10.69
69785;BMP280;14177;51.520;6.764;2024-02-04T06:31:53;101995.28;;;10.69
69785;BMP280;14177;51.520;6.764;2024-02-04T06:34:20;101987.47;;;10.70
69785;BMP280;14177;51.520;6.764;2024-02-04T06:36:47;101988.34;;;10.69
69785;BMP280;14177;51.520;6.764;2024-02-04T06:39:14;101987.50;;;10.67
69785;BMP280;14177;51.520;6.764;2024-02-04T06:41:41;101984.06;;;10.65
69785;BMP280;14177;51.520;6.764;2024-02-04T06:44:08;101978.84;;;10.65
69785;BMP280;14177;51.520;6.764;2024-02-04T06:46:35;101973.66;;;10.65
69785;BMP280;14177;51.520;6.764;2024-02-04T06:49:02;101979.78;;;10.61
69785;BMP280;14177;51.520;6.764;2024-02-04T06:51:29;101957.22;;;10.63
69785;BMP280;14177;51.520;6.764;2024-02-04T06:53:56;101970.22;;;10.63
69785;BMP280;14177;51.520;6.764;2024-02-04T06:56:23;101972.84;;;10.62
69785;BMP280;14177;51.520;6.764;2024-02-04T06:58:50;101974.59;;;10.60
69785;BMP280;14177;51.520;6.764;2024-02-04T07:01:17;101960.75;;;10.59
69785;BMP280;14177;51.520;6.764;2024-02-04T07:03:44;101959.00;;;10.60
69785;BMP280;14177;51.520;6.764;2024-02-04T07:06:11;101957.25;;;10.62
69785;BMP280;14177;51.520;6.764;2024-02-04T07:08:38;101965.94;;;10.61
69785;BMP280;14177;51.520;6.764;2024-02-04T07:11:05;101962.41;;;10.63
69785;BMP280;14177;51.520;6.764;2024-02-04T07:13:32;101962.38;;;10.66
69785;BMP280;14177;51.520;6.764;2024-02-04T07:15:59;101969.38;;;10.63
69785;BMP280;14177;51.520;6.764;2024-02-04T07:18:26;101972.81;;;10.65
69785;BMP280;14177;51.520;6.764;2024-02-04T07:20:53;101983.97;;;10.71
69785;BMP280;14177;51.520;6.764;2024-02-04T07:23:20;101987.53;;;10.66
69785;BMP280;14177;51.520;6.764;2024-02-04T07:25:48;101977.13;;;10.66
69785;BMP280;14177;51.520;6.764;2024-02-04T07:28:16;101975.38;;;10.66
69785;BMP280;14177;51.520;6.764;2024-02-04T07:30:43;101984.94;;;10.66
69785;BMP280;14177;51.520;6.764;2024-02-04T07:33:10;101989.25;;;10.65
69785;BMP280;14177;51.520;6.764;2024-02-04T07:35:37;101992.69;;;10.67
69785;BMP280;14177;51.520;6.764;2024-02-04T07:38:03;101980.56;;;10.68
69785;BMP280;14177;51.520;6.764;2024-02-04T07:40:31;101977.06;;;10.72
69785;BMP280;14177;51.520;6.764;2024-02-04T07:42:58;101992.56;;;10.78
69785;BMP280;14177;51.520;6.764;2024-02-04T07:45:25;101979.53;;;10.79
69785;BMP280;14177;51.520;6.764;2024-02-04T07:47:52;101986.47;;;10.80
69785;BMP280;14177;51.520;6.764;2024-02-04T07:50:19;101986.50;;;10.79
69785;BMP280;14177;51.520;6.764;2024-02-04T07:52:46;101984.75;;;10.81
69785;BMP280;14177;51.520;6.764;2024-02-04T07:55:13;101981.25;;;10.80
69785;BMP280;14177;51.520;6.764;2024-02-04T07:57:40;101993.44;;;10.77
69785;BMP280;14177;51.520;6.764;2024-02-04T08:00:07;101990.00;;;10.75
69785;BMP280;14177;51.520;6.764;2024-02-04T08:02:40;101996.97;;;10.71
69785;BMP280;14177;51.520;6.764;2024-02-04T08:05:07;101983.97;;;10.73
69785;BMP280;14177;51.520;6.764;2024-02-04T08:07:34;101980.50;;;10.72
69785;BMP280;14177;51.520;6.764;2024-02-04T08:10:01;101983.13;;;10.71
69785;BMP280;14177;51.520;6.764;2024-02-04T08:12:28;101986.63;;;10.70
69785;BMP280;14177;51.520;6.764;2024-02-04T08:14:56;101980.53;;;10.71
69785;BMP280;14177;51.520;6.764;2024-02-04T08:17:23;101974.50;;;10.69
69785;BMP280;14177;51.520;6.764;2024-02-04T08:19:50;101981.44;;;10.67
69785;BMP280;14177;51.520;6.764;2024-02-04T08:22:17;101982.25;;;10.72
69785;BMP280;14177;51.520;6.764;2024-02-04T08:24:45;101980.47;;;10.77
69785;BMP280;14177;51.520;6.764;2024-02-04T08:27:13;101977.03;;;10.75
69785;BMP280;14177;51.520;6.764;2024-02-04T08:29:44;101975.31;;;10.72
69785;BMP280;14177;51.520;6.764;2024-02-04T08:32:11;101975.25;;;10.75
69785;BMP280;14177;51.520;6.764;2024-02-04T08:34:39;101984.84;;;10.72
69785;BMP280;14177;51.520;6.764;2024-02-04T08:37:06;101984.81;;;10.75
69785;BMP280;14177;51.520;6.764;2024-02-04T08:39:34;101975.25;;;10.77
69785;BMP280;14177;51.520;6.764;2024-02-04T08:42:01;101979.53;;;10.81
69785;BMP280;14177;51.520;6.764;2024-02-04T08:44:28;101972.59;;;10.81
69785;BMP280;14177;51.520;6.764;2024-02-04T08:47:05;101974.31;;;10.84
69785;BMP280;14177;51.520;6.764;2024-02-04T08:49:32;101969.09;;;10.82
69785;BMP280;14177;51.520;6.764;2024-02-04T08:51:59;101956.09;;;10.82
69785;BMP280;14177;51.520;6.764;2024-02-04T08:54:26;101959.59;;;10.81
69785;BMP280;14177;51.520;6.764;2024-02-04T08:56:53;101964.81;;;10.80
69785;BMP280;14177;51.520;6.764;2024-02-04T08:59:21;101968.31;;;10.77
69785;BMP280;14177;51.520;6.764;2024-02-04T09:01:47;101970.06;;;10.77
69785;BMP280;14177;51.520;6.764;2024-02-04T09:04:15;101963.19;;;10.73
69785;BMP280;14177;51.520;6.764;2024-02-04T09:06:42;101961.44;;;10.73
69785;BMP280;14177;51.520;6.764;2024-02-04T09:09:09;101964.91;;;10.74
69785;BMP280;14177;51.520;6.764;2024-02-04T09:11:36;101957.97;;;10.73
69785;BMP280;14177;51.520;6.764;2024-02-04T09:14:03;101957.06;;;10.75
69785;BMP280;14177;51.520;6.764;2024-02-04T09:16:31;101959.59;;;10.81
69785;BMP280;14177;51.520;6.764;2024-02-04T09:18:58;101958.72;;;10.84
69785;BMP280;14177;51.520;6.764;2024-02-04T09:21:25;101966.47;;;10.87
69785;BMP280;14177;51.520;6.764;2024-02-04T09:23:52;101959.63;;;10.80
69785;BMP280;14177;51.520;6.764;2024-02-04T09:26:20;101951.81;;;10.80
69785;BMP280;14177;51.520;6.764;2024-02-04T09:28:47;101951.81;;;10.80
69785;BMP280;14177;51.520;6.764;2024-02-04T09:31:14;101953.53;;;10.81
69785;BMP280;14177;51.520;6.764;2024-02-04T09:33:41;101962.09;;;10.87
69785;BMP280;14177;51.520;6.764;2024-02-04T09:36:09;101964.75;;;10.86
69785;BMP280;14177;51.520;6.764;2024-02-04T09:38:36;101969.06;;;10.85
69785;BMP280;14177;51.520;6.764;2024-02-04T09:41:04;101972.50;;;10.88
69785;BMP280;14177;51.520;6.764;2024-02-04T09:43:32;101978.53;;;10.90
69785;BMP280;14177;51.520;6.764;2024-02-04T09:46:01;101987.22;;;10.89
69785;BMP280;14177;51.520;6.764;2024-02-04T09:48:33;101986.31;;;10.92
69785;BMP280;14177;51.520;6.764;2024-02-04T09:51:02;101980.19;;;10.94
69785;BMP280;14177;51.520;6.764;2024-02-04T09:53:33;101975.81;;;10.96
69785;BMP280;14177;51.520;6.764;2024-02-04T09:56:06;101970.63;;;10.98
69785;BMP280;14177;51.520;6.764;2024-02-04T09:58:47;101973.19;;;10.99
69785;BMP280;14177;51.520;6.764;2024-02-04T10:06:30;101968.06;;;10.93
69785;BMP280;14177;51.520;6.764;2024-02-04T10:10:51;101969.81;;;10.93
69785;BMP280;14177;51.520;6.764;2024-02-04T10:23:35;101959.25;;;11.03
69785;BMP280;14177;51.520;6.764;2024-02-04T10:27:00;101971.38;;;11.06
69785;BMP280;14177;51.520;6.764;2024-02-04T10:29:54;101973.00;;;11.13
69785;BMP280;14177;51.520;6.764;2024-02-04T10:33:38;101986.78;;;11.19
69785;BMP280;14177;51.520;6.764;2024-02-04T10:36:37;101984.13;;;11.22
69785;BMP280;14177;51.520;6.764;2024-02-04T10:40:10;101981.41;;;11.30
69785;BMP280;14177;51.520;6.764;2024-02-04T10:43:07;101989.13;;;11.36
69785;BMP280;14177;51.520;6.764;2024-02-04T10:45:38;101984.69;;;11.41
69785;BMP280;14177;51.520;6.764;2024-02-04T10:48:07;101984.66;;;11.45
69785;BMP280;14177;51.520;6.764;2024-02-04T10:50:38;101981.91;;;11.53
69785;BMP280;14177;51.520;6.764;2024-02-04T10:53:07;101987.97;;;11.56
69785;BMP280;14177;51.520;6.764;2024-02-04T10:55:41;101977.53;;;11.58
69785;BMP280;14177;51.520;6.764;2024-02-04T10:58:12;101997.50;;;11.56
69785;BMP280;14177;51.520;6.764;2024-02-04T11:00:43;102004.53;;;11.49
69785;BMP280;14177;51.520;6.764;2024-02-04T11:03:12;101984.69;;;11.42
69785;BMP280;14177;51.520;6.764;2024-02-04T11:05:42;101978.66;;;11.40
69785;BMP280;14177;51.520;6.764;2024-02-04T11:08:11;101976.94;;;11.39
69785;BMP280;14177;51.520;6.764;2024-02-04T11:10:39;101971.72;;;11.39
69785;BMP280;14177;51.520;6.764;2024-02-04T11:13:09;101988.22;;;11.38
69785;BMP280;14177;51.520;6.764;2024-02-04T11:15:38;101975.22;;;11.38
69785;BMP280;14177;51.520;6.764;2024-02-04T11:24:39;101942.13;;;11.46
69785;BMP280;14177;51.520;6.764;2024-02-04T11:27:09;101951.66;;;11.47
69785;BMP280;14177;51.520;6.764;2024-02-04T11:29:38;101945.63;;;11.45
69785;BMP280;14177;51.520;6.764;2024-02-04T11:32:06;101943.84;;;11.47
69785;BMP280;14177;51.520;6.764;2024-02-04T11:34:34;101943.00;;;11.44
69785;BMP280;14177;51.520;6.764;2024-02-04T11:37:01;101928.38;;;11.38
69785;BMP280;14177;51.520;6.764;2024-02-04T11:39:29;101931.97;;;11.31
69785;BMP280;14177;51.520;6.764;2024-02-04T11:41:56;101925.97;;;11.26
69785;BMP280;14177;51.520;6.764;2024-02-04T11:44:27;101933.81;;;11.23
69785;BMP280;14177;51.520;6.764;2024-02-04T11:46:55;101926.06;;;11.20
69785;BMP280;14177;51.520;6.764;2024-02-04T11:49:25;101922.63;;;11.18
69785;BMP280;14177;51.520;6.764;2024-02-04T11:51:53;101925.22;;;11.18
69785;BMP280;14177;51.520;6.764;2024-02-04T11:54:21;101902.75;;;11.16
69785;BMP280;14177;51.520;6.764;2024-02-04T11:56:50;101895.78;;;11.16
69785;BMP280;14177;51.520;6.764;2024-02-04T11:59:22;101898.38;;;11.18
69785;BMP280;14177;51.520;6.764;2024-02-04T12:01:55;101888.81;;;11.18
69785;BMP280;14177;51.520;6.764;2024-02-04T12:04:23;101892.25;;;11.20
69785;BMP280;14177;51.520;6.764;2024-02-04T12:06:50;101883.56;;;11.21
69785;BMP280;14177;51.520;6.764;2024-02-04T12:09:19;101891.34;;;11.23
69785;BMP280;14177;51.520;6.764;2024-02-04T12:11:47;101869.66;;;11.24
69785;BMP280;14177;51.520;6.764;2024-02-04T12:14:14;101879.19;;;11.25
69785;BMP280;14177;51.520;6.764;2024-02-04T12:16:44;101883.50;;;11.26
69785;BMP280;14177;51.520;6.764;2024-02-04T12:19:12;101884.28;;;11.29
69785;BMP280;14177;51.520;6.764;2024-02-04T12:21:39;101868.69;;;11.29
69785;BMP280;14177;51.520;6.764;2024-02-04T12:24:07;101876.44;;;11.31
69785;BMP280;14177;51.520;6.764;2024-02-04T12:26:35;101870.41;;;11.30
69785;BMP280;14177;51.520;6.764;2024-02-04T12:29:02;101857.41;;;11.30
69785;BMP280;14177;51.520;6.764;2024-02-04T12:31:29;101860.88;;;11.29
69785;BMP280;14177;51.520;6.764;2024-02-04T12:34:00;101859.13;;;11.31
69785;BMP280;14177;51.520;6.764;2024-02-04T12:36:31;101867.84;;;11.29
69785;BMP280;14177;51.520;6.764;2024-02-04T12:39:01;101860.03;;;11.29
69785;BMP280;14177;51.520;6.764;2024-02-04T12:41:29;101860.84;;;11.32
69785;BMP280;14177;51.520;6.764;2024-02-04T12:43:59;101855.56;;;11.35
69785;BMP280;14177;51.520;6.764;2024-02-04T12:46:27;101861.66;;;11.34
69785;BMP280;14177;51.520;6.764;2024-02-04T12:48:56;101857.34;;;11.33
69785;BMP280;14177;51.520;6.764;2024-02-04T12:51:32;101851.25;;;11.34
69785;BMP280;14177;51.520;6.764;2024-02-04T12:54:08;101844.34;;;11.33
69785;BMP280;14177;51.520;6.764;2024-02-04T12:56:46;101846.94;;;11.32
69785;BMP280;14177;51.520;6.764;2024-02-04T12:59:32;101834.81;;;11.32
69785;BMP280;14177;51.520;6.764;2024-02-04T13:02:04;101843.50;;;11.31
69785;BMP280;14177;51.520;6.764;2024-02-04T13:04:39;101854.84;;;11.29
69785;BMP280;14177;51.520;6.764;2024-02-04T13:07:12;101840.03;;;11.31
69785;BMP280;14177;51.520;6.764;2024-02-04T13:09:45;101825.34;;;11.28
69785;BMP280;14177;51.520;6.764;2024-02-04T13:12:15;101828.84;;;11.27
69785;BMP280;14177;51.520;6.764;2024-02-04T13:14:43;101829.72;;;11.26
69785;BMP280;14177;51.520;6.764;2024-02-04T13:17:11;101839.25;;;11.27
69785;BMP280;14177;51.520;6.764;2024-02-04T13:19:39;101845.31;;;11.26
69785;BMP280;14177;51.520;6.764;2024-02-04T13:22:07;101855.72;;;11.26
69785;BMP280;14177;51.520;6.764;2024-02-04T13:24:37;101853.13;;;11.26
69785;BMP280;14177;51.520;6.764;2024-02-04T13:27:04;101858.38;;;11.25
69785;BMP280;14177;51.520;6.764;2024-02-04T13:29:34;101853.22;;;11.20
69785;BMP280;14177;51.520;6.764;2024-02-04T13:32:02;101857.53;;;11.23
69785;BMP280;14177;51.520;6.764;2024-02-04T13:34:29;101858.38;;;11.23
69785;BMP280;14177;51.520;6.764;2024-02-04T13:36:56;101854.06;;;11.22
69785;BMP280;14177;51.520;6.764;2024-02-04T13:39:23;101867.94;;;11.21
69785;BMP280;14177;51.520;6.764;2024-02-04T13:41:50;101874.88;;;11.22
69785;BMP280;14177;51.520;6.764;2024-02-04T13:44:16;101863.63;;;11.20
69785;BMP280;14177;51.520;6.764;2024-02-04T13:46:44;101865.31;;;11.24
69785;BMP280;14177;51.520;6.764;2024-02-04T13:49:11;101867.91;;;11.24
69785;BMP280;14177;51.520;6.764;2024-02-04T13:51:39;101859.22;;;11.25
69785;BMP280;14177;51.520;6.764;2024-02-04T13:54:12;101861.06;;;11.19
69785;BMP280;14177;51.520;6.764;2024-02-04T13:56:45;101857.66;;;11.15
69785;BMP280;14177;51.520;6.764;2024-02-04T13:59:13;101855.03;;;11.17
69785;BMP280;14177;51.520;6.764;2024-02-04T14:01:40;101850.72;;;11.14
69785;BMP280;14177;51.520;6.764;2024-02-04T14:04:07;101842.03;;;11.15
69785;BMP280;14177;51.520;6.764;2024-02-04T14:06:35;101841.22;;;11.13
69785;BMP280;14177;51.520;6.764;2024-02-04T14:09:03;101836.84;;;11.15
69785;BMP280;14177;51.520;6.764;2024-02-04T14:11:32;101839.47;;;11.14
69785;BMP280;14177;51.520;6.764;2024-02-04T14:13:59;101838.56;;;11.16
69785;BMP280;14177;51.520;6.764;2024-02-04T14:16:26;101838.59;;;11.13
69785;BMP280;14177;51.520;6.764;2024-02-04T14:18:53;101845.56;;;11.11
69785;BMP280;14177;51.520;6.764;2024-02-04T14:21:24;101844.69;;;11.14
69785;BMP280;14177;51.520;6.764;2024-02-04T14:23:51;101845.56;;;11.11
69785;BMP280;14177;51.520;6.764;2024-02-04T14:26:19;101843.00;;;11.10
69785;BMP280;14177;51.520;6.764;2024-02-04T14:28:48;101856.75;;;11.16
69785;BMP280;14177;51.520;6.764;2024-02-04T14:31:15;101852.53;;;11.11